sensor_id;sensor_type;location;lat;lon;timestamp;temperature;humidity
17307;DHT22;8771;48.048;7.682;2023-10-31T00:04:01;13.70;78.50
17307;DHT22;8771;48.048;7.682;2023-10-31T00:09:04;13.60;78.60
17307;DHT22;8771;48.048;7.682;2023-10-31T00:14:06;13.60;78.70
17307;DHT22;8771;48.048;7.682;2023-10-31T00:19:09;13.50;78.70
17307;DHT22;8771;48.048;7.682;2023-10-31T00:24:12;13.50;78.70
17307;DHT22;8771;48.048;7.682;2023-10-31T00:29:14;13.50;78.70
17307;DHT22;8771;48.048;7.682;2023-10-31T00:34:17;13.50;78.70
17307;DHT22;8771;48.048;7.682;2023-10-31T00:39:20;13.50;78.70
17307;DHT22;8771;48.048;7.682;2023-10-31T00:44:23;13.40;78.60
17307;DHT22;8771;48.048;7.682;2023-10-31T00:49:25;13.40;78.60
17307;DHT22;8771;48.048;7.682;2023-10-31T00:54:28;13.40;78.60
17307;DHT22;8771;48.048;7.682;2023-10-31T00:59:30;13.40;78.60
17307;DHT22;8771;48.048;7.682;2023-10-31T01:04:32;13.40;78.60
17307;DHT22;8771;48.048;7.682;2023-10-31T01:09:35;13.40;78.60
17307;DHT22;8771;48.048;7.682;2023-10-31T01:14:37;13.40;78.60
17307;DHT22;8771;48.048;7.682;2023-10-31T01:19:39;13.40;78.60
17307;DHT22;8771;48.048;7.682;2023-10-31T01:24:42;13.30;78.60
17307;DHT22;8771;48.048;7.682;2023-10-31T01:29:44;13.30;78.60
17307;DHT22;8771;48.048;7.682;2023-10-31T01:34:46;13.30;78.60
17307;DHT22;8771;48.048;7.682;2023-10-31T01:39:49;13.30;78.60
17307;DHT22;8771;48.048;7.682;2023-10-31T01:44:51;13.30;78.60
17307;DHT22;8771;48.048;7.682;2023-10-31T01:49:53;13.20;78.60
17307;DHT22;8771;48.048;7.682;2023-10-31T01:54:57;13.20;78.60
17307;DHT22;8771;48.048;7.682;2023-10-31T01:59:59;13.20;78.60
17307;DHT22;8771;48.048;7.682;2023-10-31T02:05:01;13.20;78.60
17307;DHT22;8771;48.048;7.682;2023-10-31T02:10:05;13.20;78.60
17307;DHT22;8771;48.048;7.682;2023-10-31T02:15:08;13.30;78.60
17307;DHT22;8771;48.048;7.682;2023-10-31T02:20:11;13.30;78.60
17307;DHT22;8771;48.048;7.682;2023-10-31T02:25:17;13.30;78.60
17307;DHT22;8771;48.048;7.682;2023-10-31T02:30:20;13.20;78.50
17307;DHT22;8771;48.048;7.682;2023-10-31T02:35:22;13.20;78.60
17307;DHT22;8771;48.048;7.682;2023-10-31T02:40:25;13.20;78.60
17307;DHT22;8771;48.048;7.682;2023-10-31T02:45:27;13.20;78.70
17307;DHT22;8771;48.048;7.682;2023-10-31T02:50:29;13.20;78.60
17307;DHT22;8771;48.048;7.682;2023-10-31T02:55:32;13.20;78.70
17307;DHT22;8771;48.048;7.682;2023-10-31T03:00:34;13.20;78.60
17307;DHT22;8771;48.048;7.682;2023-10-31T03:05:36;13.20;78.70
17307;DHT22;8771;48.048;7.682;2023-10-31T03:10:41;13.20;78.70
17307;DHT22;8771;48.048;7.682;2023-10-31T03:15:43;13.10;78.70
17307;DHT22;8771;48.048;7.682;2023-10-31T03:20:46;13.10;78.70
17307;DHT22;8771;48.048;7.682;2023-10-31T03:25:49;13.00;78.70
17307;DHT22;8771;48.048;7.682;2023-10-31T03:30:51;13.00;78.80
17307;DHT22;8771;48.048;7.682;2023-10-31T03:35:53;13.00;78.80
17307;DHT22;8771;48.048;7.682;2023-10-31T03:40:57;13.00;78.70
17307;DHT22;8771;48.048;7.682;2023-10-31T03:45:59;12.90;78.70
17307;DHT22;8771;48.048;7.682;2023-10-31T03:51:00;12.90;78.70
17307;DHT22;8771;48.048;7.682;2023-10-31T03:56:04;12.90;78.70
17307;DHT22;8771;48.048;7.682;2023-10-31T04:01:06;12.90;78.80
17307;DHT22;8771;48.048;7.682;2023-10-31T04:06:08;12.90;78.70
17307;DHT22;8771;48.048;7.682;2023-10-31T04:11:11;12.90;78.70
17307;DHT22;8771;48.048;7.682;2023-10-31T04:16:13;12.90;78.70
17307;DHT22;8771;48.048;7.682;2023-10-31T04:21:15;12.90;78.70
17307;DHT22;8771;48.048;7.682;2023-10-31T04:26:18;12.80;78.70
17307;DHT22;8771;48.048;7.682;2023-10-31T04:31:25;12.80;79.50
17307;DHT22;8771;48.048;7.682;2023-10-31T04:36:28;12.80;78.80
17307;DHT22;8771;48.048;7.682;2023-10-31T04:41:31;12.80;78.80
17307;DHT22;8771;48.048;7.682;2023-10-31T04:46:33;12.80;78.80
17307;DHT22;8771;48.048;7.682;2023-10-31T04:51:36;12.80;78.80
17307;DHT22;8771;48.048;7.682;2023-10-31T04:56:39;12.80;78.70
17307;DHT22;8771;48.048;7.682;2023-10-31T05:01:41;12.80;78.70
17307;DHT22;8771;48.048;7.682;2023-10-31T05:06:43;12.80;78.70
17307;DHT22;8771;48.048;7.682;2023-10-31T05:11:46;12.90;78.70
17307;DHT22;8771;48.048;7.682;2023-10-31T05:16:48;12.90;78.70
17307;DHT22;8771;48.048;7.682;2023-10-31T05:21:50;12.90;78.70
17307;DHT22;8771;48.048;7.682;2023-10-31T05:26:53;12.80;78.60
17307;DHT22;8771;48.048;7.682;2023-10-31T05:31:55;12.80;78.70
17307;DHT22;8771;48.048;7.682;2023-10-31T05:36:57;12.80;78.70
17307;DHT22;8771;48.048;7.682;2023-10-31T05:42:00;12.70;78.70
17307;DHT22;8771;48.048;7.682;2023-10-31T05:47:02;12.70;78.70
17307;DHT22;8771;48.048;7.682;2023-10-31T05:52:05;12.70;78.70
17307;DHT22;8771;48.048;7.682;2023-10-31T05:57:08;12.70;78.70
17307;DHT22;8771;48.048;7.682;2023-10-31T06:02:10;12.70;78.70
17307;DHT22;8771;48.048;7.682;2023-10-31T06:07:12;12.60;78.70
17307;DHT22;8771;48.048;7.682;2023-10-31T06:12:15;12.60;78.70
17307;DHT22;8771;48.048;7.682;2023-10-31T06:17:17;12.60;78.70
17307;DHT22;8771;48.048;7.682;2023-10-31T06:22:19;12.70;78.70
17307;DHT22;8771;48.048;7.682;2023-10-31T06:27:22;12.60;78.60
17307;DHT22;8771;48.048;7.682;2023-10-31T06:32:24;12.60;78.70
17307;DHT22;8771;48.048;7.682;2023-10-31T06:37:26;12.60;78.70
17307;DHT22;8771;48.048;7.682;2023-10-31T06:42:30;12.60;78.70
17307;DHT22;8771;48.048;7.682;2023-10-31T06:47:32;12.50;78.70
17307;DHT22;8771;48.048;7.682;2023-10-31T06:52:34;12.60;78.80
17307;DHT22;8771;48.048;7.682;2023-10-31T06:57:37;12.60;78.70
17307;DHT22;8771;48.048;7.682;2023-10-31T07:02:39;12.60;78.70
17307;DHT22;8771;48.048;7.682;2023-10-31T07:07:41;12.60;78.70
17307;DHT22;8771;48.048;7.682;2023-10-31T07:12:44;12.60;78.50
17307;DHT22;8771;48.048;7.682;2023-10-31T07:17:46;12.60;78.50
17307;DHT22;8771;48.048;7.682;2023-10-31T07:22:49;12.70;78.40
17307;DHT22;8771;48.048;7.682;2023-10-31T07:27:53;12.80;78.40
17307;DHT22;8771;48.048;7.682;2023-10-31T07:32:56;12.80;78.30
17307;DHT22;8771;48.048;7.682;2023-10-31T07:37:59;12.80;78.20
17307;DHT22;8771;48.048;7.682;2023-10-31T07:43:03;12.90;78.20
17307;DHT22;8771;48.048;7.682;2023-10-31T07:48:07;13.00;78.10
17307;DHT22;8771;48.048;7.682;2023-10-31T07:53:10;13.10;78.00
17307;DHT22;8771;48.048;7.682;2023-10-31T07:58:14;13.20;78.00
17307;DHT22;8771;48.048;7.682;2023-10-31T08:03:17;13.30;77.80
17307;DHT22;8771;48.048;7.682;2023-10-31T08:08:20;13.30;77.80
17307;DHT22;8771;48.048;7.682;2023-10-31T08:13:25;13.40;77.80
17307;DHT22;8771;48.048;7.682;2023-10-31T08:18:28;13.40;77.70
17307;DHT22;8771;48.048;7.682;2023-10-31T08:23:31;13.50;77.80
17307;DHT22;8771;48.048;7.682;2023-10-31T08:28:36;13.50;77.80
17307;DHT22;8771;48.048;7.682;2023-10-31T08:33:39;13.60;77.70
17307;DHT22;8771;48.048;7.682;2023-10-31T08:38:42;13.70;77.70
17307;DHT22;8771;48.048;7.682;2023-10-31T08:43:46;13.80;77.70
17307;DHT22;8771;48.048;7.682;2023-10-31T08:48:49;13.90;77.60
17307;DHT22;8771;48.048;7.682;2023-10-31T08:53:52;14.00;77.50
17307;DHT22;8771;48.048;7.682;2023-10-31T08:58:56;14.10;77.40
17307;DHT22;8771;48.048;7.682;2023-10-31T09:03:59;14.20;77.30
17307;DHT22;8771;48.048;7.682;2023-10-31T09:09:02;14.40;77.20
17307;DHT22;8771;48.048;7.682;2023-10-31T09:14:07;14.60;77.00
17307;DHT22;8771;48.048;7.682;2023-10-31T09:19:10;14.80;76.90
17307;DHT22;8771;48.048;7.682;2023-10-31T09:24:13;14.90;76.90
17307;DHT22;8771;48.048;7.682;2023-10-31T09:29:16;15.10;76.70
17307;DHT22;8771;48.048;7.682;2023-10-31T09:34:18;15.30;76.60
17307;DHT22;8771;48.048;7.682;2023-10-31T09:39:20;15.60;76.40
17307;DHT22;8771;48.048;7.682;2023-10-31T09:44:24;15.90;76.10
17307;DHT22;8771;48.048;7.682;2023-10-31T09:49:27;16.20;75.90
17307;DHT22;8771;48.048;7.682;2023-10-31T09:54:29;16.30;75.80
17307;DHT22;8771;48.048;7.682;2023-10-31T09:59:33;16.60;75.70
17307;DHT22;8771;48.048;7.682;2023-10-31T10:04:36;16.80;75.40
17307;DHT22;8771;48.048;7.682;2023-10-31T10:09:38;17.00;75.40
17307;DHT22;8771;48.048;7.682;2023-10-31T10:14:41;17.10;75.40
17307;DHT22;8771;48.048;7.682;2023-10-31T10:19:43;17.20;75.30
17307;DHT22;8771;48.048;7.682;2023-10-31T10:29:53;17.70;74.30
17307;DHT22;8771;48.048;7.682;2023-10-31T10:34:55;18.00;74.70
17307;DHT22;8771;48.048;7.682;2023-10-31T10:39:58;18.30;74.70
17307;DHT22;8771;48.048;7.682;2023-10-31T10:45:04;18.50;74.40
17307;DHT22;8771;48.048;7.682;2023-10-31T10:50:06;18.80;74.10
17307;DHT22;8771;48.048;7.682;2023-10-31T10:55:12;18.80;74.00
17307;DHT22;8771;48.048;7.682;2023-10-31T11:00:18;18.80;74.30
17307;DHT22;8771;48.048;7.682;2023-10-31T11:05:25;18.90;74.50
17307;DHT22;8771;48.048;7.682;2023-10-31T11:10:27;18.90;74.60
17307;DHT22;8771;48.048;7.682;2023-10-31T11:15:32;18.90;74.80
17307;DHT22;8771;48.048;7.682;2023-10-31T11:20:34;19.00;74.80
17307;DHT22;8771;48.048;7.682;2023-10-31T11:25:42;19.00;74.70
17307;DHT22;8771;48.048;7.682;2023-10-31T11:30:48;19.10;74.50
17307;DHT22;8771;48.048;7.682;2023-10-31T11:35:51;19.20;74.40
17307;DHT22;8771;48.048;7.682;2023-10-31T11:41:02;19.40;74.10
17307;DHT22;8771;48.048;7.682;2023-10-31T11:46:06;19.50;74.10
17307;DHT22;8771;48.048;7.682;2023-10-31T11:51:19;19.40;74.20
17307;DHT22;8771;48.048;7.682;2023-10-31T11:56:22;19.30;74.40
17307;DHT22;8771;48.048;7.682;2023-10-31T12:01:25;19.10;74.70
17307;DHT22;8771;48.048;7.682;2023-10-31T12:06:27;18.90;74.90
17307;DHT22;8771;48.048;7.682;2023-10-31T12:11:29;18.70;75.20
17307;DHT22;8771;48.048;7.682;2023-10-31T12:16:34;18.60;75.50
17307;DHT22;8771;48.048;7.682;2023-10-31T12:21:39;18.50;75.60
17307;DHT22;8771;48.048;7.682;2023-10-31T12:26:44;18.50;75.70
17307;DHT22;8771;48.048;7.682;2023-10-31T12:31:49;18.40;75.70
17307;DHT22;8771;48.048;7.682;2023-10-31T12:36:53;18.30;75.60
17307;DHT22;8771;48.048;7.682;2023-10-31T12:41:56;18.20;75.70
17307;DHT22;8771;48.048;7.682;2023-10-31T12:46:59;18.00;75.90
17307;DHT22;8771;48.048;7.682;2023-10-31T12:52:03;17.90;76.10
17307;DHT22;8771;48.048;7.682;2023-10-31T12:57:06;17.80;76.00
17307;DHT22;8771;48.048;7.682;2023-10-31T13:02:10;17.70;76.00
17307;DHT22;8771;48.048;7.682;2023-10-31T13:07:26;17.60;76.10
17307;DHT22;8771;48.048;7.682;2023-10-31T13:12:30;17.60;76.10
17307;DHT22;8771;48.048;7.682;2023-10-31T13:17:33;17.50;76.10
17307;DHT22;8771;48.048;7.682;2023-10-31T13:22:38;17.40;76.10
17307;DHT22;8771;48.048;7.682;2023-10-31T13:27:41;17.30;76.10
17307;DHT22;8771;48.048;7.682;2023-10-31T13:32:45;17.20;76.10
17307;DHT22;8771;48.048;7.682;2023-10-31T13:37:46;17.10;76.10
17307;DHT22;8771;48.048;7.682;2023-10-31T13:42:48;17.10;76.10
17307;DHT22;8771;48.048;7.682;2023-10-31T13:47:52;17.10;76.00
17307;DHT22;8771;48.048;7.682;2023-10-31T13:52:53;17.10;75.90
17307;DHT22;8771;48.048;7.682;2023-10-31T13:57:56;17.00;75.80
17307;DHT22;8771;48.048;7.682;2023-10-31T14:02:59;17.00;75.80
17307;DHT22;8771;48.048;7.682;2023-10-31T14:08:01;16.90;75.90
17307;DHT22;8771;48.048;7.682;2023-10-31T14:13:03;16.80;76.00
17307;DHT22;8771;48.048;7.682;2023-10-31T14:18:06;16.70;76.10
17307;DHT22;8771;48.048;7.682;2023-10-31T14:23:08;16.70;76.00
17307;DHT22;8771;48.048;7.682;2023-10-31T14:28:10;16.70;75.90
17307;DHT22;8771;48.048;7.682;2023-10-31T14:33:13;16.80;75.80
17307;DHT22;8771;48.048;7.682;2023-10-31T14:38:15;16.80;75.80
17307;DHT22;8771;48.048;7.682;2023-10-31T14:43:17;16.80;75.70
17307;DHT22;8771;48.048;7.682;2023-10-31T14:48:20;16.70;75.70
17307;DHT22;8771;48.048;7.682;2023-10-31T14:53:22;16.70;75.80
17307;DHT22;8771;48.048;7.682;2023-10-31T14:58:24;16.60;75.80
17307;DHT22;8771;48.048;7.682;2023-10-31T15:03:28;16.60;75.80
17307;DHT22;8771;48.048;7.682;2023-10-31T15:08:29;16.50;75.90
17307;DHT22;8771;48.048;7.682;2023-10-31T15:13:31;16.50;75.90
17307;DHT22;8771;48.048;7.682;2023-10-31T15:18:35;16.40;75.90
17307;DHT22;8771;48.048;7.682;2023-10-31T15:23:37;16.30;75.90
17307;DHT22;8771;48.048;7.682;2023-10-31T15:28:39;16.30;76.10
17307;DHT22;8771;48.048;7.682;2023-10-31T15:33:43;16.20;76.10
17307;DHT22;8771;48.048;7.682;2023-10-31T15:38:45;16.10;76.90
17307;DHT22;8771;48.048;7.682;2023-10-31T15:43:47;16.10;76.20
17307;DHT22;8771;48.048;7.682;2023-10-31T15:48:51;16.00;76.30
17307;DHT22;8771;48.048;7.682;2023-10-31T15:53:53;16.00;76.40
17307;DHT22;8771;48.048;7.682;2023-10-31T15:58:55;15.90;76.40
17307;DHT22;8771;48.048;7.682;2023-10-31T16:03:58;15.80;76.50
17307;DHT22;8771;48.048;7.682;2023-10-31T16:09:00;15.70;76.60
17307;DHT22;8771;48.048;7.682;2023-10-31T16:14:03;15.60;76.70
17307;DHT22;8771;48.048;7.682;2023-10-31T16:19:06;15.50;76.70
17307;DHT22;8771;48.048;7.682;2023-10-31T16:24:08;15.50;76.80
17307;DHT22;8771;48.048;7.682;2023-10-31T16:29:10;15.40;77.50
17307;DHT22;8771;48.048;7.682;2023-10-31T16:34:17;15.30;76.70
17307;DHT22;8771;48.048;7.682;2023-10-31T16:39:19;15.30;76.80
17307;DHT22;8771;48.048;7.682;2023-10-31T16:44:21;15.10;76.80
17307;DHT22;8771;48.048;7.682;2023-10-31T16:49:24;15.10;76.90
17307;DHT22;8771;48.048;7.682;2023-10-31T16:54:26;15.10;76.90
17307;DHT22;8771;48.048;7.682;2023-10-31T16:59:28;15.00;76.90
17307;DHT22;8771;48.048;7.682;2023-10-31T17:04:32;14.90;76.90
17307;DHT22;8771;48.048;7.682;2023-10-31T17:09:37;14.90;77.00
17307;DHT22;8771;48.048;7.682;2023-10-31T17:14:39;14.90;77.00
17307;DHT22;8771;48.048;7.682;2023-10-31T17:19:43;14.80;77.00
17307;DHT22;8771;48.048;7.682;2023-10-31T17:24:45;14.80;77.00
17307;DHT22;8771;48.048;7.682;2023-10-31T17:29:46;14.70;77.20
17307;DHT22;8771;48.048;7.682;2023-10-31T17:34:50;14.60;77.30
17307;DHT22;8771;48.048;7.682;2023-10-31T17:39:52;14.50;77.40
17307;DHT22;8771;48.048;7.682;2023-10-31T17:44:53;14.40;77.40
17307;DHT22;8771;48.048;7.682;2023-10-31T17:49:57;14.30;77.40
17307;DHT22;8771;48.048;7.682;2023-10-31T17:54:59;14.30;77.50
17307;DHT22;8771;48.048;7.682;2023-10-31T18:00:01;14.30;77.50
17307;DHT22;8771;48.048;7.682;2023-10-31T18:05:06;14.20;77.50
17307;DHT22;8771;48.048;7.682;2023-10-31T18:10:09;14.10;77.50
17307;DHT22;8771;48.048;7.682;2023-10-31T18:15:11;14.00;77.60
17307;DHT22;8771;48.048;7.682;2023-10-31T18:20:15;13.90;77.70
17307;DHT22;8771;48.048;7.682;2023-10-31T18:25:17;13.80;77.80
17307;DHT22;8771;48.048;7.682;2023-10-31T18:30:19;13.70;77.80
17307;DHT22;8771;48.048;7.682;2023-10-31T18:35:24;13.60;77.80
17307;DHT22;8771;48.048;7.682;2023-10-31T18:40:29;13.50;77.80
17307;DHT22;8771;48.048;7.682;2023-10-31T18:45:32;13.50;77.80
17307;DHT22;8771;48.048;7.682;2023-10-31T18:50:36;13.40;77.90
17307;DHT22;8771;48.048;7.682;2023-10-31T18:55:39;13.40;78.00
17307;DHT22;8771;48.048;7.682;2023-10-31T19:00:41;13.30;77.90
17307;DHT22;8771;48.048;7.682;2023-10-31T19:05:44;13.30;77.90
17307;DHT22;8771;48.048;7.682;2023-10-31T19:10:46;13.20;78.00
17307;DHT22;8771;48.048;7.682;2023-10-31T19:15:48;13.20;78.00
17307;DHT22;8771;48.048;7.682;2023-10-31T19:20:51;13.10;78.00
17307;DHT22;8771;48.048;7.682;2023-10-31T19:25:53;13.10;78.00
17307;DHT22;8771;48.048;7.682;2023-10-31T19:30:55;13.10;78.00
17307;DHT22;8771;48.048;7.682;2023-10-31T19:35:58;13.10;77.90
17307;DHT22;8771;48.048;7.682;2023-10-31T19:41:00;13.20;77.90
17307;DHT22;8771;48.048;7.682;2023-10-31T19:46:03;13.20;77.80
17307;DHT22;8771;48.048;7.682;2023-10-31T19:51:06;13.20;77.80
17307;DHT22;8771;48.048;7.682;2023-10-31T19:56:16;13.20;77.80
17307;DHT22;8771;48.048;7.682;2023-10-31T20:01:18;13.20;77.70
17307;DHT22;8771;48.048;7.682;2023-10-31T20:06:21;13.20;77.70
17307;DHT22;8771;48.048;7.682;2023-10-31T20:11:24;13.20;77.60
17307;DHT22;8771;48.048;7.682;2023-10-31T20:16:26;13.20;77.60
17307;DHT22;8771;48.048;7.682;2023-10-31T20:21:30;13.20;77.50
17307;DHT22;8771;48.048;7.682;2023-10-31T20:26:32;13.20;77.50
17307;DHT22;8771;48.048;7.682;2023-10-31T20:31:34;13.20;77.50
17307;DHT22;8771;48.048;7.682;2023-10-31T20:36:38;13.20;77.50
17307;DHT22;8771;48.048;7.682;2023-10-31T20:41:43;13.20;77.50
17307;DHT22;8771;48.048;7.682;2023-10-31T20:46:46;13.20;77.40
17307;DHT22;8771;48.048;7.682;2023-10-31T20:51:50;13.30;77.40
17307;DHT22;8771;48.048;7.682;2023-10-31T20:56:54;13.30;77.40
17307;DHT22;8771;48.048;7.682;2023-10-31T21:01:58;13.30;77.40
17307;DHT22;8771;48.048;7.682;2023-10-31T21:07:03;13.30;77.30
17307;DHT22;8771;48.048;7.682;2023-10-31T21:12:06;13.40;77.40
17307;DHT22;8771;48.048;7.682;2023-10-31T21:17:09;13.40;77.30
17307;DHT22;8771;48.048;7.682;2023-10-31T21:22:14;13.40;77.40
17307;DHT22;8771;48.048;7.682;2023-10-31T21:27:16;13.40;77.40
17307;DHT22;8771;48.048;7.682;2023-10-31T21:32:19;13.40;77.30
17307;DHT22;8771;48.048;7.682;2023-10-31T21:37:24;13.40;77.30
17307;DHT22;8771;48.048;7.682;2023-10-31T21:42:25;13.40;77.20
17307;DHT22;8771;48.048;7.682;2023-10-31T21:47:27;13.40;77.20
17307;DHT22;8771;48.048;7.682;2023-10-31T21:52:32;13.50;77.20
17307;DHT22;8771;48.048;7.682;2023-10-31T21:57:34;13.50;77.20
17307;DHT22;8771;48.048;7.682;2023-10-31T22:02:36;13.50;77.20
17307;DHT22;8771;48.048;7.682;2023-10-31T22:07:39;13.50;77.20
17307;DHT22;8771;48.048;7.682;2023-10-31T22:12:41;13.50;77.20
17307;DHT22;8771;48.048;7.682;2023-10-31T22:17:44;13.60;77.20
17307;DHT22;8771;48.048;7.682;2023-10-31T22:22:48;13.60;77.20
17307;DHT22;8771;48.048;7.682;2023-10-31T22:27:50;13.60;77.20
17307;DHT22;8771;48.048;7.682;2023-10-31T22:32:53;13.50;77.20
17307;DHT22;8771;48.048;7.682;2023-10-31T22:37:56;13.50;77.20
17307;DHT22;8771;48.048;7.682;2023-10-31T22:42:58;13.50;77.20
17307;DHT22;8771;48.048;7.682;2023-10-31T22:48:00;13.50;77.30
17307;DHT22;8771;48.048;7.682;2023-10-31T22:53:04;13.50;77.20
17307;DHT22;8771;48.048;7.682;2023-10-31T22:58:08;13.50;77.30
17307;DHT22;8771;48.048;7.682;2023-10-31T23:03:10;13.50;77.30
17307;DHT22;8771;48.048;7.682;2023-10-31T23:08:13;13.40;77.40
17307;DHT22;8771;48.048;7.682;2023-10-31T23:13:15;13.40;77.50
17307;DHT22;8771;48.048;7.682;2023-10-31T23:18:17;13.30;77.50
17307;DHT22;8771;48.048;7.682;2023-10-31T23:23:21;13.30;77.60
17307;DHT22;8771;48.048;7.682;2023-10-31T23:28:23;13.20;77.70
17307;DHT22;8771;48.048;7.682;2023-10-31T23:33:25;13.20;77.70
17307;DHT22;8771;48.048;7.682;2023-10-31T23:38:28;13.10;77.60
17307;DHT22;8771;48.048;7.682;2023-10-31T23:43:30;13.10;77.60
17307;DHT22;8771;48.048;7.682;2023-10-31T23:48:32;13.10;77.60
17307;DHT22;8771;48.048;7.682;2023-10-31T23:53:36;13.00;77.60
17307;DHT22;8771;48.048;7.682;2023-10-31T23:58:38;12.90;77.70
